Terminal Aerodrome Forecast
Issued by NWS

Current Version | Previous Version | Text Only | Print | Product List | Glossary On
Versions: 1 2 3 4 5 6 7 8 9 10 11 12 13 14 15 16 17 18 19 20 21 22 23 24 25 26 27 28 29 30 31 32
931
FTUS44 KMOB 242325
TAFBFM
TAF
KBFM 242325Z 2500/2524 13007KT P6SM VCTS FEW025 SCT060CB SCT250
     FM250100 10005KT P6SM FEW025 SCT060 SCT250
     FM251600 12011KT P6SM BKN025 BKN100 BKN250
     FM251800 12012G18KT P6SM VCTS BKN040CB BKN250
     FM252200 13012KT P6SM SCT060 SCT250=

USA.gov is the U.S. government's official web portal to all federal, state and local government web resources and services.